sensor_id;sensor_type;location;lat;lon;timestamp;pressure;altitude;pressure_sealevel;temperature;humidity
76114;BME280;64845;53.086;5.834;2023-01-16T00:01:58;99532.59;;;3.76;83.45
76114;BME280;64845;53.086;5.834;2023-01-16T00:04:24;99532.59;;;3.76;83.53
76114;BME280;64845;53.086;5.834;2023-01-16T00:06:50;99525.59;;;3.75;83.48
76114;BME280;64845;53.086;5.834;2023-01-16T00:09:15;99522.06;;;3.74;83.02
76114;BME280;64845;53.086;5.834;2023-01-16T00:11:41;99517.69;;;3.75;83.36
76114;BME280;64845;53.086;5.834;2023-01-16T00:14:06;99507.97;;;3.75;83.23
76114;BME280;64845;53.086;5.834;2023-01-16T00:16:32;99512.41;;;3.75;83.69
76114;BME280;64845;53.086;5.834;2023-01-16T00:18:57;99510.66;;;3.74;83.07
76114;BME280;64845;53.086;5.834;2023-01-16T00:21:23;99496.59;;;3.73;83.16
76114;BME280;64845;53.086;5.834;2023-01-16T00:23:54;99497.47;;;3.74;83.28
76114;BME280;64845;53.086;5.834;2023-01-16T00:26:20;99496.56;;;3.75;83.47
76114;BME280;64845;53.086;5.834;2023-01-16T00:28:46;99492.13;;;3.75;83.71
76114;BME280;64845;53.086;5.834;2023-01-16T00:31:12;99494.75;;;3.75;82.78
76114;BME280;64845;53.086;5.834;2023-01-16T00:33:37;99503.56;;;3.76;83.46
76114;BME280;64845;53.086;5.834;2023-01-16T00:36:03;99492.19;;;3.74;83.50
76114;BME280;64845;53.086;5.834;2023-01-16T00:38:29;99482.53;;;3.73;82.98
76114;BME280;64845;53.086;5.834;2023-01-16T00:40:54;99482.59;;;3.71;82.88
76114;BME280;64845;53.086;5.834;2023-01-16T00:43:19;99465.88;;;3.71;83.10
76114;BME280;64845;53.086;5.834;2023-01-16T00:45:45;99472.81;;;3.73;83.62
76114;BME280;64845;53.086;5.834;2023-01-16T00:48:12;99460.56;;;3.72;82.85
76114;BME280;64845;53.086;5.834;2023-01-16T00:50:38;99463.25;;;3.71;83.31
76114;BME280;64845;53.086;5.834;2023-01-16T00:53:04;99455.31;;;3.71;83.18
76114;BME280;64845;53.086;5.834;2023-01-16T00:55:29;99453.56;;;3.71;83.31
76114;BME280;64845;53.086;5.834;2023-01-16T00:57:57;99448.22;;;3.73;83.35
76114;BME280;64845;53.086;5.834;2023-01-16T01:00:22;99440.38;;;3.71;83.15
76114;BME280;64845;53.086;5.834;2023-01-16T01:02:48;99438.66;;;3.69;83.25
76114;BME280;64845;53.086;5.834;2023-01-16T01:05:14;99433.44;;;3.67;83.09
76114;BME280;64845;53.086;5.834;2023-01-16T01:07:40;99448.47;;;3.65;83.40
76114;BME280;64845;53.086;5.834;2023-01-16T01:10:05;99439.69;;;3.65;83.45
76114;BME280;64845;53.086;5.834;2023-01-16T01:12:31;99442.38;;;3.63;83.33
76114;BME280;64845;53.086;5.834;2023-01-16T01:14:56;99444.09;;;3.64;83.10
76114;BME280;64845;53.086;5.834;2023-01-16T01:17:21;99433.56;;;3.64;83.38
76114;BME280;64845;53.086;5.834;2023-01-16T01:19:47;99431.72;;;3.66;82.86
76114;BME280;64845;53.086;5.834;2023-01-16T01:22:12;99431.72;;;3.66;83.43
76114;BME280;64845;53.086;5.834;2023-01-16T01:24:38;99426.44;;;3.66;83.51
76114;BME280;64845;53.086;5.834;2023-01-16T01:27:04;99419.38;;;3.67;82.83
76114;BME280;64845;53.086;5.834;2023-01-16T01:29:29;99412.34;;;3.67;83.18
76114;BME280;64845;53.086;5.834;2023-01-16T01:31:54;99421.97;;;3.68;83.36
76114;BME280;64845;53.086;5.834;2023-01-16T01:34:20;99421.09;;;3.68;83.08
76114;BME280;64845;53.086;5.834;2023-01-16T01:36:45;99404.31;;;3.70;82.74
76114;BME280;64845;53.086;5.834;2023-01-16T01:39:10;99390.22;;;3.71;83.33
76114;BME280;64845;53.086;5.834;2023-01-16T01:41:36;99385.78;;;3.72;82.99
76114;BME280;64845;53.086;5.834;2023-01-16T01:44:01;99377.84;;;3.72;83.04
76114;BME280;64845;53.086;5.834;2023-01-16T01:46:41;99372.56;;;3.72;83.54
76114;BME280;64845;53.086;5.834;2023-01-16T01:51:41;99362.88;;;3.72;83.30
76114;BME280;64845;53.086;5.834;2023-01-16T01:54:11;99354.09;;;3.72;82.82
76114;BME280;64845;53.086;5.834;2023-01-16T01:56:54;99362.00;;;3.72;82.93
76114;BME280;64845;53.086;5.834;2023-01-16T01:59:26;99352.38;;;3.71;82.92
76114;BME280;64845;53.086;5.834;2023-01-16T02:01:54;99344.50;;;3.69;83.14
76114;BME280;64845;53.086;5.834;2023-01-16T02:04:25;99343.63;;;3.69;82.98
76114;BME280;64845;53.086;5.834;2023-01-16T02:06:58;99342.00;;;3.65;83.08
76114;BME280;64845;53.086;5.834;2023-01-16T02:09:26;99333.31;;;3.62;82.89
76114;BME280;64845;53.086;5.834;2023-01-16T02:11:56;99324.59;;;3.60;83.23
76114;BME280;64845;53.086;5.834;2023-01-16T02:14:24;99319.31;;;3.60;83.09
76114;BME280;64845;53.086;5.834;2023-01-16T02:17:05;99309.69;;;3.58;82.81
76114;BME280;64845;53.086;5.834;2023-01-16T02:20:23;99317.72;;;3.55;83.14
76114;BME280;64845;53.086;5.834;2023-01-16T02:23:31;99313.41;;;3.52;83.24
76114;BME280;64845;53.086;5.834;2023-01-16T02:34:19;99298.81;;;3.42;83.21
76114;BME280;64845;53.086;5.834;2023-01-16T02:42:30;99265.44;;;3.41;82.75
76114;BME280;64845;53.086;5.834;2023-01-16T02:45:05;99261.06;;;3.40;82.60
76114;BME280;64845;53.086;5.834;2023-01-16T02:50:56;99247.88;;;3.40;83.26
76114;BME280;64845;53.086;5.834;2023-01-16T02:56:16;99236.53;;;3.38;82.70
76114;BME280;64845;53.086;5.834;2023-01-16T02:58:47;99228.59;;;3.38;83.10
76114;BME280;64845;53.086;5.834;2023-01-16T03:01:13;99224.19;;;3.38;83.01
76114;BME280;64845;53.086;5.834;2023-01-16T03:03:47;99231.25;;;3.38;82.83
76114;BME280;64845;53.086;5.834;2023-01-16T03:08:59;99218.22;;;3.33;82.54
76114;BME280;64845;53.086;5.834;2023-01-16T03:11:31;99215.69;;;3.30;83.14
76114;BME280;64845;53.086;5.834;2023-01-16T03:16:47;99202.78;;;3.22;83.19
76114;BME280;64845;53.086;5.834;2023-01-16T03:19:27;99208.16;;;3.19;83.03
76114;BME280;64845;53.086;5.834;2023-01-16T03:22:33;99198.63;;;3.15;82.89
76114;BME280;64845;53.086;5.834;2023-01-16T03:28:39;99195.34;;;3.08;83.36
76114;BME280;64845;53.086;5.834;2023-01-16T03:33:56;99193.53;;;3.09;82.94
76114;BME280;64845;53.086;5.834;2023-01-16T03:36:33;99190.81;;;3.12;82.65
76114;BME280;64845;53.086;5.834;2023-01-16T03:39:04;99194.25;;;3.14;82.97
76114;BME280;64845;53.086;5.834;2023-01-16T03:41:31;99184.50;;;3.16;83.15
76114;BME280;64845;53.086;5.834;2023-01-16T03:44:07;99177.44;;;3.16;82.76
76114;BME280;64845;53.086;5.834;2023-01-16T03:46:42;99177.41;;;3.18;82.67
76114;BME280;64845;53.086;5.834;2023-01-16T03:49:15;99165.94;;;3.19;82.89
76114;BME280;64845;53.086;5.834;2023-01-16T03:51:49;99166.78;;;3.20;nan
76114;BME280;64845;53.086;5.834;2023-01-16T03:59:34;99184.25;;;3.24;83.03
76114;BME280;64845;53.086;5.834;2023-01-16T04:02:11;99175.41;;;3.25;83.16
76114;BME280;64845;53.086;5.834;2023-01-16T04:07:13;99170.88;;;3.28;83.06
76114;BME280;64845;53.086;5.834;2023-01-16T04:09:58;99164.66;;;3.31;83.07
76114;BME280;64845;53.086;5.834;2023-01-16T04:12:36;99174.31;;;3.30;82.79
76114;BME280;64845;53.086;5.834;2023-01-16T04:15:05;99172.50;;;3.32;82.83
76114;BME280;64845;53.086;5.834;2023-01-16T04:17:31;99161.94;;;3.32;83.31
76114;BME280;64845;53.086;5.834;2023-01-16T04:19:58;99153.13;;;3.33;82.94
76114;BME280;64845;53.086;5.834;2023-01-16T04:22:26;99148.75;;;3.32;82.96
76114;BME280;64845;53.086;5.834;2023-01-16T04:24:53;99146.03;;;3.34;83.17
76114;BME280;64845;53.086;5.834;2023-01-16T04:27:21;99137.19;;;3.37;83.19
76114;BME280;64845;53.086;5.834;2023-01-16T04:29:47;99131.03;;;3.36;83.38
76114;BME280;64845;53.086;5.834;2023-01-16T04:32:13;99124.09;;;3.33;82.86
76114;BME280;64845;53.086;5.834;2023-01-16T04:34:38;99113.47;;;3.35;83.13
76114;BME280;64845;53.086;5.834;2023-01-16T04:37:04;99106.38;;;3.37;83.13
76114;BME280;64845;53.086;5.834;2023-01-16T04:39:30;99097.53;;;3.38;82.93
76114;BME280;64845;53.086;5.834;2023-01-16T04:41:55;99093.94;;;3.41;82.82
76114;BME280;64845;53.086;5.834;2023-01-16T04:44:20;99084.22;;;3.41;83.29
76114;BME280;64845;53.086;5.834;2023-01-16T04:46:46;99074.47;;;3.43;83.07
76114;BME280;64845;53.086;5.834;2023-01-16T04:49:11;99069.94;;;3.47;83.34
76114;BME280;64845;53.086;5.834;2023-01-16T04:51:37;99056.75;;;3.47;83.09
76114;BME280;64845;53.086;5.834;2023-01-16T04:54:05;99054.91;;;3.49;83.28
76114;BME280;64845;53.086;5.834;2023-01-16T04:56:31;99046.06;;;3.50;82.91
76114;BME280;64845;53.086;5.834;2023-01-16T04:58:56;99041.59;;;3.52;83.33
76114;BME280;64845;53.086;5.834;2023-01-16T05:01:22;99032.75;;;3.53;83.35
76114;BME280;64845;53.086;5.834;2023-01-16T05:03:48;99025.69;;;3.54;83.24
76114;BME280;64845;53.086;5.834;2023-01-16T05:06:13;99012.56;;;3.52;83.17
76114;BME280;64845;53.086;5.834;2023-01-16T05:08:38;99018.78;;;3.51;82.71
76114;BME280;64845;53.086;5.834;2023-01-16T05:11:04;99006.56;;;3.48;83.37
76114;BME280;64845;53.086;5.834;2023-01-16T05:13:30;99007.50;;;3.47;82.63
76114;BME280;64845;53.086;5.834;2023-01-16T05:15:55;98999.63;;;3.46;83.23
76114;BME280;64845;53.086;5.834;2023-01-16T05:18:22;98981.22;;;3.44;82.64
76114;BME280;64845;53.086;5.834;2023-01-16T05:20:47;98980.41;;;3.42;83.14
76114;BME280;64845;53.086;5.834;2023-01-16T05:23:13;98975.25;;;3.39;82.60
76114;BME280;64845;53.086;5.834;2023-01-16T05:25:39;98979.72;;;3.37;83.05
76114;BME280;64845;53.086;5.834;2023-01-16T05:28:04;98973.59;;;3.37;82.96
76114;BME280;64845;53.086;5.834;2023-01-16T05:30:30;98965.81;;;3.33;82.85
76114;BME280;64845;53.086;5.834;2023-01-16T05:32:56;98969.47;;;3.29;83.01
76114;BME280;64845;53.086;5.834;2023-01-16T05:35:21;98960.84;;;3.26;83.14
76114;BME280;64845;53.086;5.834;2023-01-16T05:37:47;98952.13;;;3.24;82.65
76114;BME280;64845;53.086;5.834;2023-01-16T05:40:12;98956.59;;;3.22;82.33
76114;BME280;64845;53.086;5.834;2023-01-16T05:42:38;98954.03;;;3.20;83.20
76114;BME280;64845;53.086;5.834;2023-01-16T05:45:04;98947.97;;;3.18;82.48
76114;BME280;64845;53.086;5.834;2023-01-16T05:47:30;98949.72;;;3.17;82.92
76114;BME280;64845;53.086;5.834;2023-01-16T05:49:55;98937.44;;;3.16;83.24
76114;BME280;64845;53.086;5.834;2023-01-16T05:52:26;98929.59;;;3.15;83.08
76114;BME280;64845;53.086;5.834;2023-01-16T05:54:53;98926.97;;;3.15;82.61
76114;BME280;64845;53.086;5.834;2023-01-16T05:57:19;98919.91;;;3.15;82.70
76114;BME280;64845;53.086;5.834;2023-01-16T05:59:48;98917.28;;;3.15;82.85
76114;BME280;64845;53.086;5.834;2023-01-16T06:02:14;98915.56;;;3.14;82.98
76114;BME280;64845;53.086;5.834;2023-01-16T06:04:39;98902.38;;;3.14;82.76
76114;BME280;64845;53.086;5.834;2023-01-16T06:07:04;98891.81;;;3.14;82.84
76114;BME280;64845;53.086;5.834;2023-01-16T06:09:30;98893.59;;;3.14;82.71
76114;BME280;64845;53.086;5.834;2023-01-16T06:11:55;98888.41;;;3.12;82.56
76114;BME280;64845;53.086;5.834;2023-01-16T06:14:20;98888.41;;;3.12;82.23
76114;BME280;64845;53.086;5.834;2023-01-16T06:16:46;98875.28;;;3.11;83.29
76114;BME280;64845;53.086;5.834;2023-01-16T06:19:11;98876.16;;;3.11;82.79
76114;BME280;64845;53.086;5.834;2023-01-16T06:21:36;98872.69;;;3.09;83.33
76114;BME280;64845;53.086;5.834;2023-01-16T06:24:02;98872.75;;;3.08;83.26
76114;BME280;64845;53.086;5.834;2023-01-16T06:26:27;98863.13;;;3.07;82.92
76114;BME280;64845;53.086;5.834;2023-01-16T06:28:53;98855.22;;;3.07;82.34
76114;BME280;64845;53.086;5.834;2023-01-16T06:31:21;98846.50;;;3.05;82.56
76114;BME280;64845;53.086;5.834;2023-01-16T06:33:46;98847.44;;;3.04;82.81
76114;BME280;64845;53.086;5.834;2023-01-16T06:36:13;98840.38;;;3.04;83.04
76114;BME280;64845;53.086;5.834;2023-01-16T06:38:39;98843.03;;;3.04;83.21
76114;BME280;64845;53.086;5.834;2023-01-16T06:41:04;98844.75;;;3.05;82.74
76114;BME280;64845;53.086;5.834;2023-01-16T06:43:30;98844.81;;;3.04;82.93
76114;BME280;64845;53.086;5.834;2023-01-16T06:45:55;98829.00;;;3.04;82.70
76114;BME280;64845;53.086;5.834;2023-01-16T06:48:21;98821.09;;;3.04;82.52
76114;BME280;64845;53.086;5.834;2023-01-16T06:50:47;98816.72;;;3.02;82.30
76114;BME280;64845;53.086;5.834;2023-01-16T06:53:13;98801.75;;;3.03;82.84
76114;BME280;64845;53.086;5.834;2023-01-16T06:55:39;98800.00;;;3.04;82.60
76114;BME280;64845;53.086;5.834;2023-01-16T06:58:05;98798.19;;;3.04;nan
76114;BME280;64845;53.086;5.834;2023-01-16T07:00:31;98787.56;;;3.06;82.92
76114;BME280;64845;53.086;5.834;2023-01-16T07:02:57;98784.88;;;3.07;82.67
76114;BME280;64845;53.086;5.834;2023-01-16T07:05:25;98778.69;;;3.08;82.64
76114;BME280;64845;53.086;5.834;2023-01-16T07:07:51;98768.16;;;3.08;82.78
76114;BME280;64845;53.086;5.834;2023-01-16T07:10:16;98768.94;;;3.10;82.83
76114;BME280;64845;53.086;5.834;2023-01-16T07:12:42;98769.78;;;3.11;82.64
76114;BME280;64845;53.086;5.834;2023-01-16T07:15:09;98758.41;;;3.10;83.03
76114;BME280;64845;53.086;5.834;2023-01-16T07:17:53;98757.59;;;3.08;83.03
76114;BME280;64845;53.086;5.834;2023-01-16T07:20:37;98750.53;;;3.09;82.76
76114;BME280;64845;53.086;5.834;2023-01-16T07:23:31;98746.25;;;3.06;82.47
76114;BME280;64845;53.086;5.834;2023-01-16T07:26:01;98739.19;;;3.07;82.92
76114;BME280;64845;53.086;5.834;2023-01-16T07:28:28;98736.56;;;3.07;82.76
76114;BME280;64845;53.086;5.834;2023-01-16T07:30:54;98730.44;;;3.06;82.83
76114;BME280;64845;53.086;5.834;2023-01-16T07:33:20;98730.44;;;3.06;82.99
76114;BME280;64845;53.086;5.834;2023-01-16T07:35:46;98717.25;;;3.06;83.07
76114;BME280;64845;53.086;5.834;2023-01-16T07:38:11;98725.16;;;3.06;82.80
76114;BME280;64845;53.086;5.834;2023-01-16T07:40:37;98718.16;;;3.05;82.29
76114;BME280;64845;53.086;5.834;2023-01-16T07:43:02;98715.53;;;3.05;82.92
76114;BME280;64845;53.086;5.834;2023-01-16T07:45:28;98719.94;;;3.05;82.87
76114;BME280;64845;53.086;5.834;2023-01-16T07:47:53;98715.53;;;3.05;82.26
76114;BME280;64845;53.086;5.834;2023-01-16T07:50:19;98702.44;;;3.04;82.29
76114;BME280;64845;53.086;5.834;2023-01-16T07:52:44;98715.63;;;3.04;82.78
76114;BME280;64845;53.086;5.834;2023-01-16T07:55:11;98705.91;;;3.04;82.51
76114;BME280;64845;53.086;5.834;2023-01-16T07:57:38;98707.72;;;3.04;82.81
76114;BME280;64845;53.086;5.834;2023-01-16T08:00:05;98699.78;;;3.04;82.95
76114;BME280;64845;53.086;5.834;2023-01-16T08:02:31;98697.91;;;3.06;83.08
76114;BME280;64845;53.086;5.834;2023-01-16T08:04:56;98698.84;;;3.05;82.25
76114;BME280;64845;53.086;5.834;2023-01-16T08:07:21;98698.84;;;3.05;82.59
76114;BME280;64845;53.086;5.834;2023-01-16T08:09:47;98690.94;;;3.05;82.53
76114;BME280;64845;53.086;5.834;2023-01-16T08:12:12;98684.75;;;3.06;82.56
76114;BME280;64845;53.086;5.834;2023-01-16T08:14:38;98677.75;;;3.05;82.47
76114;BME280;64845;53.086;5.834;2023-01-16T08:17:04;98670.72;;;3.05;82.59
76114;BME280;64845;53.086;5.834;2023-01-16T08:19:30;98663.66;;;3.06;82.59
76114;BME280;64845;53.086;5.834;2023-01-16T08:21:55;98652.19;;;3.07;82.98
76114;BME280;64845;53.086;5.834;2023-01-16T08:24:20;98632.81;;;3.08;82.93
76114;BME280;64845;53.086;5.834;2023-01-16T08:26:47;98648.56;;;3.09;82.81
76114;BME280;64845;53.086;5.834;2023-01-16T08:29:12;98636.22;;;3.10;82.99
76114;BME280;64845;53.086;5.834;2023-01-16T08:31:37;98637.09;;;3.10;82.60
76114;BME280;64845;53.086;5.834;2023-01-16T08:34:03;98624.75;;;3.11;82.78
76114;BME280;64845;53.086;5.834;2023-01-16T08:36:28;98625.56;;;3.13;82.32
76114;BME280;64845;53.086;5.834;2023-01-16T08:38:53;98618.50;;;3.13;82.51
76114;BME280;64845;53.086;5.834;2023-01-16T08:41:19;98614.88;;;3.16;82.72
76114;BME280;64845;53.086;5.834;2023-01-16T08:44:04;98608.69;;;3.17;82.99
76114;BME280;64845;53.086;5.834;2023-01-16T08:47:03;98603.28;;;3.20;83.04
76114;BME280;64845;53.086;5.834;2023-01-16T08:49:48;98583.88;;;3.21;82.64
76114;BME280;64845;53.086;5.834;2023-01-16T08:52:33;98588.16;;;3.24;83.03
76114;BME280;64845;53.086;5.834;2023-01-16T08:55:01;98570.53;;;3.24;82.75
76114;BME280;64845;53.086;5.834;2023-01-16T08:57:27;98566.97;;;3.25;82.46
76114;BME280;64845;53.086;5.834;2023-01-16T08:59:56;98550.22;;;3.26;82.61
76114;BME280;64845;53.086;5.834;2023-01-16T09:02:23;98546.66;;;3.27;82.62
76114;BME280;64845;53.086;5.834;2023-01-16T09:04:48;98546.59;;;3.29;82.45
76114;BME280;64845;53.086;5.834;2023-01-16T09:07:15;98540.31;;;3.31;82.44
76114;BME280;64845;53.086;5.834;2023-01-16T09:09:41;98539.41;;;3.32;82.61
76114;BME280;64845;53.086;5.834;2023-01-16T09:12:10;98535.69;;;3.37;83.13
76114;BME280;64845;53.086;5.834;2023-01-16T09:14:54;98523.28;;;3.39;82.59
76114;BME280;64845;53.086;5.834;2023-01-16T09:17:21;98517.88;;;3.42;82.64
76114;BME280;64845;53.086;5.834;2023-01-16T09:19:47;98506.41;;;3.43;82.89
76114;BME280;64845;53.086;5.834;2023-01-16T09:22:12;98514.13;;;3.46;83.02
76114;BME280;64845;53.086;5.834;2023-01-16T09:24:38;98500.91;;;3.47;83.47
76114;BME280;64845;53.086;5.834;2023-01-16T09:27:04;98491.03;;;3.51;82.56
76114;BME280;64845;53.086;5.834;2023-01-16T09:29:30;98485.75;;;3.51;82.74
76114;BME280;64845;53.086;5.834;2023-01-16T09:31:57;98483.91;;;3.53;82.85
76114;BME280;64845;53.086;5.834;2023-01-16T09:34:22;98477.63;;;3.56;83.09
76114;BME280;64845;53.086;5.834;2023-01-16T09:36:48;98470.56;;;3.56;82.95
76114;BME280;64845;53.086;5.834;2023-01-16T09:39:13;98474.00;;;3.58;83.18
76114;BME280;64845;53.086;5.834;2023-01-16T09:41:51;98462.50;;;3.59;82.53
76114;BME280;64845;53.086;5.834;2023-01-16T09:44:38;98454.50;;;3.61;82.93
76114;BME280;64845;53.086;5.834;2023-01-16T09:47:05;98452.66;;;3.63;83.19
76114;BME280;64845;53.086;5.834;2023-01-16T09:49:45;98446.44;;;3.64;82.71
76114;BME280;64845;53.086;5.834;2023-01-16T09:52:16;98440.25;;;3.65;82.88
76114;BME280;64845;53.086;5.834;2023-01-16T09:55:06;98441.88;;;3.68;82.61
76114;BME280;64845;53.086;5.834;2023-01-16T09:57:55;98437.38;;;3.70;82.64
76114;BME280;64845;53.086;5.834;2023-01-16T10:00:39;98427.75;;;3.69;83.11
76114;BME280;64845;53.086;5.834;2023-01-16T10:03:04;98417.19;;;3.69;83.43
76114;BME280;64845;53.086;5.834;2023-01-16T10:05:51;98419.66;;;3.72;83.07
76114;BME280;64845;53.086;5.834;2023-01-16T10:11:48;98411.59;;;3.75;83.01
76114;BME280;64845;53.086;5.834;2023-01-16T10:25:37;98385.22;;;3.75;82.71
76114;BME280;64845;53.086;5.834;2023-01-16T10:28:07;98373.78;;;3.74;83.18
76114;BME280;64845;53.086;5.834;2023-01-16T10:30:58;98360.59;;;3.74;82.97
76114;BME280;64845;53.086;5.834;2023-01-16T10:33:38;98349.19;;;3.74;83.27
76114;BME280;64845;53.086;5.834;2023-01-16T10:36:09;98356.25;;;3.73;82.73
76114;BME280;64845;53.086;5.834;2023-01-16T10:38:43;98350.13;;;3.73;82.58
76114;BME280;64845;53.086;5.834;2023-01-16T10:41:19;98342.34;;;3.70;82.64
76114;BME280;64845;53.086;5.834;2023-01-16T10:47:15;98327.59;;;3.66;83.04
76114;BME280;64845;53.086;5.834;2023-01-16T10:50:00;98321.53;;;3.63;82.75
76114;BME280;64845;53.086;5.834;2023-01-16T10:52:25;98314.66;;;3.61;82.82
76114;BME280;64845;53.086;5.834;2023-01-16T10:54:52;98310.31;;;3.60;82.97
76114;BME280;64845;53.086;5.834;2023-01-16T10:57:19;98298.03;;;3.59;82.80
76114;BME280;64845;53.086;5.834;2023-01-16T10:59:46;98298.13;;;3.57;83.12
76114;BME280;64845;53.086;5.834;2023-01-16T11:02:18;98299.13;;;3.55;82.48
76114;BME280;64845;53.086;5.834;2023-01-16T11:04:47;98290.38;;;3.54;82.61
76114;BME280;64845;53.086;5.834;2023-01-16T11:07:26;98280.66;;;3.55;82.58
76114;BME280;64845;53.086;5.834;2023-01-16T11:09:52;98273.66;;;3.54;82.65
76114;BME280;64845;53.086;5.834;2023-01-16T11:12:27;98265.00;;;3.52;82.15
76114;BME280;64845;53.086;5.834;2023-01-16T11:15:21;98255.44;;;3.49;82.96
76114;BME280;64845;53.086;5.834;2023-01-16T11:18:34;98238.78;;;3.48;82.64
76114;BME280;64845;53.086;5.834;2023-01-16T11:21:24;98246.75;;;3.47;82.97
76114;BME280;64845;53.086;5.834;2023-01-16T11:23:56;98235.38;;;3.46;82.39
76114;BME280;64845;53.086;5.834;2023-01-16T11:26:23;98217.84;;;3.45;82.81
76114;BME280;64845;53.086;5.834;2023-01-16T11:28:48;98216.97;;;3.45;83.01
76114;BME280;64845;53.086;5.834;2023-01-16T11:31:19;98212.56;;;3.45;82.50
76114;BME280;64845;53.086;5.834;2023-01-16T11:33:49;98202.06;;;3.44;82.67
76114;BME280;64845;53.086;5.834;2023-01-16T11:36:20;98190.59;;;3.45;82.51
76114;BME280;64845;53.086;5.834;2023-01-16T11:38:47;98185.31;;;3.45;82.61
76114;BME280;64845;53.086;5.834;2023-01-16T11:41:19;98179.88;;;3.48;82.94
76114;BME280;64845;53.086;5.834;2023-01-16T11:43:48;98171.03;;;3.49;82.38
76114;BME280;64845;53.086;5.834;2023-01-16T11:46:49;98162.13;;;3.52;82.43
76114;BME280;64845;53.086;5.834;2023-01-16T11:49:23;98157.69;;;3.52;82.66
76114;BME280;64845;53.086;5.834;2023-01-16T11:51:52;98147.81;;;3.56;82.55
76114;BME280;64845;53.086;5.834;2023-01-16T11:54:27;98131.91;;;3.57;82.83
76114;BME280;64845;53.086;5.834;2023-01-16T12:02:37;98122.03;;;3.61;82.37
76114;BME280;64845;53.086;5.834;2023-01-16T12:13:08;98099.06;;;3.63;82.85
76114;BME280;64845;53.086;5.834;2023-01-16T12:21:21;98079.75;;;3.62;82.26
76114;BME280;64845;53.086;5.834;2023-01-16T12:26:24;98067.28;;;3.65;82.29
76114;BME280;64845;53.086;5.834;2023-01-16T12:29:51;98058.44;;;3.66;82.35
76114;BME280;64845;53.086;5.834;2023-01-16T12:32:05;98051.28;;;3.68;82.98
76114;BME280;64845;53.086;5.834;2023-01-16T12:35:02;98038.78;;;3.71;82.96
76114;BME280;64845;53.086;5.834;2023-01-16T12:40:23;98027.09;;;3.75;82.87
76114;BME280;64845;53.086;5.834;2023-01-16T12:43:13;98021.75;;;3.77;82.28
76114;BME280;64845;53.086;5.834;2023-01-16T12:46:06;98019.97;;;3.77;82.73
76114;BME280;64845;53.086;5.834;2023-01-16T12:49:20;98012.72;;;3.81;82.93
76114;BME280;64845;53.086;5.834;2023-01-16T12:54:40;97994.00;;;3.86;82.70
76114;BME280;64845;53.086;5.834;2023-01-16T12:57:18;97985.13;;;3.87;82.56
76114;BME280;64845;53.086;5.834;2023-01-16T12:59:53;97980.69;;;3.87;82.67
76114;BME280;64845;53.086;5.834;2023-01-16T13:02:39;97977.09;;;3.88;82.57
76114;BME280;64845;53.086;5.834;2023-01-16T13:05:20;97974.41;;;3.90;82.36
76114;BME280;64845;53.086;5.834;2023-01-16T13:07:55;97969.13;;;3.90;82.88
76114;BME280;64845;53.086;5.834;2023-01-16T13:10:33;97961.97;;;3.92;82.60
76114;BME280;64845;53.086;5.834;2023-01-16T13:13:22;97957.53;;;3.92;82.55
76114;BME280;64845;53.086;5.834;2023-01-16T13:18:28;97948.75;;;3.92;82.78
76114;BME280;64845;53.086;5.834;2023-01-16T13:20:59;97943.38;;;3.93;82.87
76114;BME280;64845;53.086;5.834;2023-01-16T13:26:32;97928.47;;;3.92;82.60
76114;BME280;64845;53.086;5.834;2023-01-16T13:29:12;97930.19;;;3.93;82.76
76114;BME280;64845;53.086;5.834;2023-01-16T13:31:53;97932.81;;;3.93;83.12
76114;BME280;64845;53.086;5.834;2023-01-16T13:34:32;97929.31;;;3.93;82.79
76114;BME280;64845;53.086;5.834;2023-01-16T13:42:49;97921.59;;;3.90;82.89
76114;BME280;64845;53.086;5.834;2023-01-16T13:45:35;97920.91;;;3.86;82.40
76114;BME280;64845;53.086;5.834;2023-01-16T13:48:21;97914.88;;;3.84;82.52
76114;BME280;64845;53.086;5.834;2023-01-16T13:51:02;97922.06;;;3.82;82.74
76114;BME280;64845;53.086;5.834;2023-01-16T13:53:32;97916.78;;;3.82;82.99
76114;BME280;64845;53.086;5.834;2023-01-16T13:56:15;97916.84;;;3.81;83.02
76114;BME280;64845;53.086;5.834;2023-01-16T13:58:48;97910.03;;;3.76;82.31
76114;BME280;64845;53.086;5.834;2023-01-16T14:01:33;97911.09;;;3.74;82.41
76114;BME280;64845;53.086;5.834;2023-01-16T14:06:45;97901.56;;;3.71;82.97
76114;BME280;64845;53.086;5.834;2023-01-16T14:09:20;97904.22;;;3.71;82.17
76114;BME280;64845;53.086;5.834;2023-01-16T14:12:18;97895.44;;;3.71;82.47
76114;BME280;64845;53.086;5.834;2023-01-16T14:17:59;97893.91;;;3.67;82.42
76114;BME280;64845;53.086;5.834;2023-01-16T14:23:02;97884.38;;;3.64;82.90
76114;BME280;64845;53.086;5.834;2023-01-16T14:25:51;97891.25;;;3.67;82.17
76114;BME280;64845;53.086;5.834;2023-01-16T14:28:18;97887.69;;;3.68;82.41
76114;BME280;64845;53.086;5.834;2023-01-16T14:30:45;97884.09;;;3.69;82.84
76114;BME280;64845;53.086;5.834;2023-01-16T14:33:18;97876.19;;;3.69;82.41
76114;BME280;64845;53.086;5.834;2023-01-16T14:35:48;97882.34;;;3.69;82.80
76114;BME280;64845;53.086;5.834;2023-01-16T14:40:47;97867.16;;;3.73;82.52
76114;BME280;64845;53.086;5.834;2023-01-16T14:43:33;97868.75;;;3.75;82.63
76114;BME280;64845;53.086;5.834;2023-01-16T14:56:02;97847.94;;;3.85;82.88
76114;BME280;64845;53.086;5.834;2023-01-16T15:01:00;97846.81;;;3.89;82.54
76114;BME280;64845;53.086;5.834;2023-01-16T15:03:59;97837.78;;;3.93;83.26
76114;BME280;64845;53.086;5.834;2023-01-16T15:06:33;97842.97;;;3.95;82.61
76114;BME280;64845;53.086;5.834;2023-01-16T15:09:00;97842.88;;;3.97;82.74
76114;BME280;64845;53.086;5.834;2023-01-16T15:11:28;97833.09;;;3.99;83.09
76114;BME280;64845;53.086;5.834;2023-01-16T15:14:05;97832.16;;;4.00;83.17
76114;BME280;64845;53.086;5.834;2023-01-16T15:16:49;97829.41;;;4.01;82.98
76114;BME280;64845;53.086;5.834;2023-01-16T15:19:33;97831.94;;;4.03;82.79
76114;BME280;64845;53.086;5.834;2023-01-16T15:22:26;97830.06;;;4.05;82.67
76114;BME280;64845;53.086;5.834;2023-01-16T15:27:47;97823.75;;;4.07;83.04
76114;BME280;64845;53.086;5.834;2023-01-16T15:30:17;97826.28;;;4.09;82.69
76114;BME280;64845;53.086;5.834;2023-01-16T15:32:57;97817.44;;;4.10;82.95
76114;BME280;64845;53.086;5.834;2023-01-16T15:35:42;97820.00;;;4.12;83.08
76114;BME280;64845;53.086;5.834;2023-01-16T15:38:09;97822.53;;;4.13;82.93